sensor_id;sensor_type;location;lat;lon;timestamp;P1;durP1;ratioP1;P2;durP2;ratioP2
25449;SDS011;13371;52.080;5.624;2022-08-16T00:01:42;11.70;;;6.85;;
25449;SDS011;13371;52.080;5.624;2022-08-16T00:04:07;9.38;;;6.88;;
25449;SDS011;13371;52.080;5.624;2022-08-16T00:06:33;13.43;;;7.18;;
25449;SDS011;13371;52.080;5.624;2022-08-16T00:08:59;9.48;;;7.57;;
25449;SDS011;13371;52.080;5.624;2022-08-16T00:11:25;14.00;;;6.72;;
25449;SDS011;13371;52.080;5.624;2022-08-16T00:13:50;12.30;;;7.38;;
25449;SDS011;13371;52.080;5.624;2022-08-16T00:16:16;14.82;;;7.30;;
25449;SDS011;13371;52.080;5.624;2022-08-16T00:18:42;10.90;;;7.15;;
25449;SDS011;13371;52.080;5.624;2022-08-16T00:21:07;13.38;;;7.45;;
25449;SDS011;13371;52.080;5.624;2022-08-16T00:23:33;10.88;;;8.07;;
25449;SDS011;13371;52.080;5.624;2022-08-16T00:25:58;12.73;;;7.68;;
25449;SDS011;13371;52.080;5.624;2022-08-16T00:28:24;12.82;;;8.02;;
25449;SDS011;13371;52.080;5.624;2022-08-16T00:30:50;13.70;;;8.30;;
25449;SDS011;13371;52.080;5.624;2022-08-16T00:33:15;10.30;;;7.93;;
25449;SDS011;13371;52.080;5.624;2022-08-16T00:35:41;11.00;;;8.02;;
25449;SDS011;13371;52.080;5.624;2022-08-16T00:38:06;12.35;;;7.18;;
25449;SDS011;13371;52.080;5.624;2022-08-16T00:42:58;11.35;;;7.40;;
25449;SDS011;13371;52.080;5.624;2022-08-16T00:45:27;8.55;;;7.20;;
25449;SDS011;13371;52.080;5.624;2022-08-16T00:47:59;9.80;;;7.32;;
25449;SDS011;13371;52.080;5.624;2022-08-16T00:50:29;11.23;;;7.53;;
25449;SDS011;13371;52.080;5.624;2022-08-16T00:52:56;11.32;;;8.32;;
25449;SDS011;13371;52.080;5.624;2022-08-16T00:55:21;11.65;;;7.55;;
25449;SDS011;13371;52.080;5.624;2022-08-16T00:57:50;10.07;;;7.78;;
25449;SDS011;13371;52.080;5.624;2022-08-16T01:00:18;12.52;;;7.75;;
25449;SDS011;13371;52.080;5.624;2022-08-16T01:02:44;10.75;;;7.60;;
25449;SDS011;13371;52.080;5.624;2022-08-16T01:05:10;9.45;;;7.93;;
25449;SDS011;13371;52.080;5.624;2022-08-16T01:07:36;12.70;;;7.72;;
25449;SDS011;13371;52.080;5.624;2022-08-16T01:10:04;12.02;;;7.95;;
25449;SDS011;13371;52.080;5.624;2022-08-16T01:12:30;11.23;;;8.50;;
25449;SDS011;13371;52.080;5.624;2022-08-16T01:14:56;11.07;;;7.93;;
25449;SDS011;13371;52.080;5.624;2022-08-16T01:17:23;13.05;;;7.70;;
25449;SDS011;13371;52.080;5.624;2022-08-16T01:19:53;10.25;;;7.63;;
25449;SDS011;13371;52.080;5.624;2022-08-16T01:25:24;10.90;;;7.63;;
25449;SDS011;13371;52.080;5.624;2022-08-16T01:27:57;11.10;;;7.20;;
25449;SDS011;13371;52.080;5.624;2022-08-16T01:30:30;12.35;;;7.60;;
25449;SDS011;13371;52.080;5.624;2022-08-16T01:32:59;10.88;;;7.72;;
25449;SDS011;13371;52.080;5.624;2022-08-16T01:35:28;11.30;;;7.78;;
25449;SDS011;13371;52.080;5.624;2022-08-16T01:38:13;9.93;;;7.45;;
25449;SDS011;13371;52.080;5.624;2022-08-16T01:40:41;11.05;;;7.88;;
25449;SDS011;13371;52.080;5.624;2022-08-16T01:43:07;10.70;;;7.82;;
25449;SDS011;13371;52.080;5.624;2022-08-16T01:45:32;10.13;;;7.97;;
25449;SDS011;13371;52.080;5.624;2022-08-16T01:47:59;13.20;;;8.63;;
25449;SDS011;13371;52.080;5.624;2022-08-16T01:50:25;11.27;;;8.15;;
25449;SDS011;13371;52.080;5.624;2022-08-16T01:52:51;14.10;;;8.02;;
25449;SDS011;13371;52.080;5.624;2022-08-16T01:55:19;10.13;;;8.32;;
25449;SDS011;13371;52.080;5.624;2022-08-16T01:57:45;11.50;;;7.60;;
25449;SDS011;13371;52.080;5.624;2022-08-16T02:00:11;13.63;;;7.85;;
25449;SDS011;13371;52.080;5.624;2022-08-16T02:02:37;10.63;;;8.30;;
25449;SDS011;13371;52.080;5.624;2022-08-16T02:05:03;11.63;;;8.63;;
25449;SDS011;13371;52.080;5.624;2022-08-16T02:07:29;9.25;;;7.70;;
25449;SDS011;13371;52.080;5.624;2022-08-16T02:09:55;10.35;;;8.27;;
25449;SDS011;13371;52.080;5.624;2022-08-16T02:12:21;15.55;;;8.70;;
25449;SDS011;13371;52.080;5.624;2022-08-16T02:14:47;15.93;;;9.48;;
25449;SDS011;13371;52.080;5.624;2022-08-16T02:17:12;13.35;;;8.90;;
25449;SDS011;13371;52.080;5.624;2022-08-16T02:19:39;13.75;;;7.95;;
25449;SDS011;13371;52.080;5.624;2022-08-16T02:22:08;13.60;;;8.13;;
25449;SDS011;13371;52.080;5.624;2022-08-16T02:24:37;14.10;;;8.60;;
25449;SDS011;13371;52.080;5.624;2022-08-16T02:27:04;13.93;;;8.05;;
25449;SDS011;13371;52.080;5.624;2022-08-16T02:29:29;12.75;;;8.75;;
25449;SDS011;13371;52.080;5.624;2022-08-16T02:31:55;14.25;;;9.45;;
25449;SDS011;13371;52.080;5.624;2022-08-16T02:34:20;12.73;;;9.93;;
25449;SDS011;13371;52.080;5.624;2022-08-16T02:36:46;10.77;;;9.05;;
25449;SDS011;13371;52.080;5.624;2022-08-16T02:39:13;12.80;;;9.55;;
25449;SDS011;13371;52.080;5.624;2022-08-16T02:41:40;13.27;;;9.25;;
25449;SDS011;13371;52.080;5.624;2022-08-16T02:44:09;12.02;;;8.68;;
25449;SDS011;13371;52.080;5.624;2022-08-16T02:46:36;12.30;;;9.70;;
25449;SDS011;13371;52.080;5.624;2022-08-16T02:49:02;11.90;;;9.35;;
25449;SDS011;13371;52.080;5.624;2022-08-16T02:51:29;12.77;;;9.20;;
25449;SDS011;13371;52.080;5.624;2022-08-16T02:53:55;14.68;;;9.57;;
25449;SDS011;13371;52.080;5.624;2022-08-16T02:56:20;15.15;;;9.38;;
25449;SDS011;13371;52.080;5.624;2022-08-16T02:58:47;17.30;;;9.45;;
25449;SDS011;13371;52.080;5.624;2022-08-16T03:01:25;12.40;;;9.10;;
25449;SDS011;13371;52.080;5.624;2022-08-16T03:03:53;13.43;;;9.25;;
25449;SDS011;13371;52.080;5.624;2022-08-16T03:06:19;12.00;;;9.52;;
25449;SDS011;13371;52.080;5.624;2022-08-16T03:08:46;12.30;;;9.27;;
25449;SDS011;13371;52.080;5.624;2022-08-16T03:11:13;12.52;;;9.57;;
25449;SDS011;13371;52.080;5.624;2022-08-16T03:13:42;12.88;;;9.20;;
25449;SDS011;13371;52.080;5.624;2022-08-16T03:16:08;13.00;;;8.52;;
25449;SDS011;13371;52.080;5.624;2022-08-16T03:18:34;11.23;;;9.27;;
25449;SDS011;13371;52.080;5.624;2022-08-16T03:20:59;15.63;;;9.68;;
25449;SDS011;13371;52.080;5.624;2022-08-16T03:23:25;14.93;;;9.68;;
25449;SDS011;13371;52.080;5.624;2022-08-16T03:25:51;13.50;;;10.20;;
25449;SDS011;13371;52.080;5.624;2022-08-16T03:28:17;15.32;;;9.90;;
25449;SDS011;13371;52.080;5.624;2022-08-16T03:30:44;15.00;;;10.00;;
25449;SDS011;13371;52.080;5.624;2022-08-16T03:33:10;13.85;;;10.25;;
25449;SDS011;13371;52.080;5.624;2022-08-16T03:35:36;21.02;;;10.05;;
25449;SDS011;13371;52.080;5.624;2022-08-16T03:38:04;16.92;;;10.77;;
25449;SDS011;13371;52.080;5.624;2022-08-16T03:40:31;15.13;;;11.13;;
25449;SDS011;13371;52.080;5.624;2022-08-16T03:42:58;16.02;;;11.10;;
25449;SDS011;13371;52.080;5.624;2022-08-16T03:45:24;13.98;;;10.93;;
25449;SDS011;13371;52.080;5.624;2022-08-16T03:47:50;15.95;;;11.60;;
25449;SDS011;13371;52.080;5.624;2022-08-16T03:50:16;16.35;;;11.95;;
25449;SDS011;13371;52.080;5.624;2022-08-16T03:52:42;18.38;;;12.55;;
25449;SDS011;13371;52.080;5.624;2022-08-16T03:55:08;15.07;;;11.45;;
25449;SDS011;13371;52.080;5.624;2022-08-16T03:57:35;19.25;;;11.05;;
25449;SDS011;13371;52.080;5.624;2022-08-16T04:00:05;15.00;;;10.45;;
25449;SDS011;13371;52.080;5.624;2022-08-16T04:02:36;12.75;;;11.18;;
25449;SDS011;13371;52.080;5.624;2022-08-16T04:05:02;14.80;;;10.82;;
25449;SDS011;13371;52.080;5.624;2022-08-16T04:07:30;18.55;;;11.45;;
25449;SDS011;13371;52.080;5.624;2022-08-16T04:09:56;16.05;;;12.20;;
25449;SDS011;13371;52.080;5.624;2022-08-16T04:12:21;13.75;;;11.55;;
25449;SDS011;13371;52.080;5.624;2022-08-16T04:14:47;18.52;;;11.68;;
25449;SDS011;13371;52.080;5.624;2022-08-16T04:17:13;15.55;;;11.57;;
25449;SDS011;13371;52.080;5.624;2022-08-16T04:19:39;18.65;;;12.40;;
25449;SDS011;13371;52.080;5.624;2022-08-16T04:22:05;19.80;;;12.00;;
25449;SDS011;13371;52.080;5.624;2022-08-16T04:24:31;15.70;;;12.32;;
25449;SDS011;13371;52.080;5.624;2022-08-16T04:26:57;15.68;;;11.43;;
25449;SDS011;13371;52.080;5.624;2022-08-16T04:29:22;16.73;;;12.65;;
25449;SDS011;13371;52.080;5.624;2022-08-16T04:31:49;16.05;;;11.38;;
25449;SDS011;13371;52.080;5.624;2022-08-16T04:34:15;17.80;;;12.48;;
25449;SDS011;13371;52.080;5.624;2022-08-16T04:36:40;16.27;;;12.50;;
25449;SDS011;13371;52.080;5.624;2022-08-16T04:39:06;17.77;;;11.85;;
25449;SDS011;13371;52.080;5.624;2022-08-16T04:41:31;18.48;;;13.38;;
25449;SDS011;13371;52.080;5.624;2022-08-16T04:43:57;18.67;;;13.02;;
25449;SDS011;13371;52.080;5.624;2022-08-16T04:46:23;16.83;;;12.52;;
25449;SDS011;13371;52.080;5.624;2022-08-16T04:48:49;19.58;;;13.70;;
25449;SDS011;13371;52.080;5.624;2022-08-16T04:51:15;16.75;;;12.48;;
25449;SDS011;13371;52.080;5.624;2022-08-16T04:53:40;18.70;;;13.63;;
25449;SDS011;13371;52.080;5.624;2022-08-16T04:56:06;17.23;;;12.13;;
25449;SDS011;13371;52.080;5.624;2022-08-16T04:58:32;20.58;;;13.27;;
25449;SDS011;13371;52.080;5.624;2022-08-16T05:00:58;20.15;;;12.90;;
25449;SDS011;13371;52.080;5.624;2022-08-16T05:03:24;19.88;;;13.90;;
25449;SDS011;13371;52.080;5.624;2022-08-16T05:05:50;19.48;;;14.23;;
25449;SDS011;13371;52.080;5.624;2022-08-16T05:08:16;19.23;;;13.10;;
25449;SDS011;13371;52.080;5.624;2022-08-16T05:10:42;21.38;;;14.85;;
25449;SDS011;13371;52.080;5.624;2022-08-16T05:13:07;26.80;;;13.65;;
25449;SDS011;13371;52.080;5.624;2022-08-16T05:15:33;20.50;;;14.55;;
25449;SDS011;13371;52.080;5.624;2022-08-16T05:18:00;21.65;;;14.98;;
25449;SDS011;13371;52.080;5.624;2022-08-16T05:20:26;23.02;;;15.07;;
25449;SDS011;13371;52.080;5.624;2022-08-16T05:22:51;19.52;;;15.50;;
25449;SDS011;13371;52.080;5.624;2022-08-16T05:25:17;21.52;;;15.65;;
25449;SDS011;13371;52.080;5.624;2022-08-16T05:27:43;25.75;;;15.68;;
25449;SDS011;13371;52.080;5.624;2022-08-16T05:30:09;20.92;;;15.65;;
25449;SDS011;13371;52.080;5.624;2022-08-16T05:32:37;20.48;;;15.80;;
25449;SDS011;13371;52.080;5.624;2022-08-16T05:35:04;21.52;;;15.35;;
25449;SDS011;13371;52.080;5.624;2022-08-16T05:37:32;23.60;;;16.65;;
25449;SDS011;13371;52.080;5.624;2022-08-16T05:39:58;25.92;;;18.10;;
25449;SDS011;13371;52.080;5.624;2022-08-16T05:42:27;24.77;;;17.23;;
25449;SDS011;13371;52.080;5.624;2022-08-16T05:44:53;26.08;;;17.98;;
25449;SDS011;13371;52.080;5.624;2022-08-16T05:47:18;25.13;;;18.40;;
25449;SDS011;13371;52.080;5.624;2022-08-16T05:49:44;27.48;;;18.98;;
25449;SDS011;13371;52.080;5.624;2022-08-16T05:52:10;26.30;;;18.45;;
25449;SDS011;13371;52.080;5.624;2022-08-16T05:54:36;28.85;;;19.02;;
25449;SDS011;13371;52.080;5.624;2022-08-16T05:57:02;27.90;;;20.27;;
25449;SDS011;13371;52.080;5.624;2022-08-16T05:59:29;27.63;;;19.17;;
25449;SDS011;13371;52.080;5.624;2022-08-16T06:01:55;26.00;;;18.77;;
25449;SDS011;13371;52.080;5.624;2022-08-16T06:04:21;28.45;;;19.23;;
25449;SDS011;13371;52.080;5.624;2022-08-16T06:06:47;26.05;;;19.38;;
25449;SDS011;13371;52.080;5.624;2022-08-16T06:09:15;26.55;;;19.95;;
25449;SDS011;13371;52.080;5.624;2022-08-16T06:11:41;29.10;;;19.15;;
25449;SDS011;13371;52.080;5.624;2022-08-16T06:14:07;29.25;;;20.38;;
25449;SDS011;13371;52.080;5.624;2022-08-16T06:16:33;29.58;;;19.92;;
25449;SDS011;13371;52.080;5.624;2022-08-16T06:18:59;32.58;;;20.58;;
25449;SDS011;13371;52.080;5.624;2022-08-16T06:21:25;29.58;;;20.92;;
25449;SDS011;13371;52.080;5.624;2022-08-16T06:23:51;30.30;;;21.55;;
25449;SDS011;13371;52.080;5.624;2022-08-16T06:26:16;29.85;;;21.90;;
25449;SDS011;13371;52.080;5.624;2022-08-16T06:28:42;27.60;;;20.95;;
25449;SDS011;13371;52.080;5.624;2022-08-16T06:31:09;25.52;;;19.88;;
25449;SDS011;13371;52.080;5.624;2022-08-16T06:33:36;25.27;;;19.85;;
25449;SDS011;13371;52.080;5.624;2022-08-16T06:36:01;30.55;;;20.92;;
25449;SDS011;13371;52.080;5.624;2022-08-16T06:38:27;29.20;;;21.42;;
25449;SDS011;13371;52.080;5.624;2022-08-16T06:40:53;26.70;;;20.75;;
25449;SDS011;13371;52.080;5.624;2022-08-16T06:43:20;24.77;;;19.20;;
25449;SDS011;13371;52.080;5.624;2022-08-16T06:45:46;27.17;;;19.98;;
25449;SDS011;13371;52.080;5.624;2022-08-16T06:48:12;27.17;;;20.25;;
25449;SDS011;13371;52.080;5.624;2022-08-16T06:50:38;25.80;;;19.48;;
25449;SDS011;13371;52.080;5.624;2022-08-16T06:53:05;25.67;;;19.80;;
25449;SDS011;13371;52.080;5.624;2022-08-16T06:55:30;29.08;;;19.27;;
25449;SDS011;13371;52.080;5.624;2022-08-16T06:57:59;25.70;;;19.33;;
25449;SDS011;13371;52.080;5.624;2022-08-16T07:00:25;27.45;;;19.13;;
25449;SDS011;13371;52.080;5.624;2022-08-16T07:02:51;27.63;;;19.30;;
25449;SDS011;13371;52.080;5.624;2022-08-16T07:05:17;25.55;;;19.20;;
25449;SDS011;13371;52.080;5.624;2022-08-16T07:07:46;24.75;;;19.42;;
25449;SDS011;13371;52.080;5.624;2022-08-16T07:10:15;26.15;;;19.52;;
25449;SDS011;13371;52.080;5.624;2022-08-16T07:12:42;26.08;;;19.17;;
25449;SDS011;13371;52.080;5.624;2022-08-16T07:15:08;27.48;;;19.02;;
25449;SDS011;13371;52.080;5.624;2022-08-16T07:17:34;24.58;;;19.88;;
25449;SDS011;13371;52.080;5.624;2022-08-16T07:20:00;25.83;;;18.85;;
25449;SDS011;13371;52.080;5.624;2022-08-16T07:22:28;24.85;;;18.88;;
25449;SDS011;13371;52.080;5.624;2022-08-16T07:24:53;27.08;;;18.60;;
25449;SDS011;13371;52.080;5.624;2022-08-16T07:27:19;26.60;;;18.65;;
25449;SDS011;13371;52.080;5.624;2022-08-16T07:29:45;33.05;;;18.65;;
25449;SDS011;13371;52.080;5.624;2022-08-16T07:32:11;24.23;;;18.20;;
25449;SDS011;13371;52.080;5.624;2022-08-16T07:34:36;25.77;;;17.42;;
25449;SDS011;13371;52.080;5.624;2022-08-16T07:37:04;25.80;;;18.17;;
25449;SDS011;13371;52.080;5.624;2022-08-16T07:39:31;24.23;;;16.95;;
25449;SDS011;13371;52.080;5.624;2022-08-16T07:41:57;22.02;;;17.08;;
25449;SDS011;13371;52.080;5.624;2022-08-16T07:44:23;19.48;;;14.93;;
25449;SDS011;13371;52.080;5.624;2022-08-16T07:46:48;23.67;;;14.52;;
25449;SDS011;13371;52.080;5.624;2022-08-16T07:49:14;23.98;;;15.18;;
25449;SDS011;13371;52.080;5.624;2022-08-16T07:51:39;18.15;;;13.88;;
25449;SDS011;13371;52.080;5.624;2022-08-16T07:54:06;19.95;;;14.27;;
25449;SDS011;13371;52.080;5.624;2022-08-16T07:56:33;22.35;;;14.40;;
25449;SDS011;13371;52.080;5.624;2022-08-16T07:58:58;20.55;;;14.25;;
25449;SDS011;13371;52.080;5.624;2022-08-16T08:01:25;22.52;;;14.32;;
25449;SDS011;13371;52.080;5.624;2022-08-16T08:03:52;16.33;;;12.88;;
25449;SDS011;13371;52.080;5.624;2022-08-16T08:06:19;18.30;;;13.70;;
25449;SDS011;13371;52.080;5.624;2022-08-16T08:08:46;18.67;;;12.98;;
25449;SDS011;13371;52.080;5.624;2022-08-16T08:11:12;19.50;;;13.65;;
25449;SDS011;13371;52.080;5.624;2022-08-16T08:13:38;21.75;;;13.65;;
25449;SDS011;13371;52.080;5.624;2022-08-16T08:16:03;22.17;;;15.43;;
25449;SDS011;13371;52.080;5.624;2022-08-16T08:18:29;23.83;;;14.90;;
25449;SDS011;13371;52.080;5.624;2022-08-16T08:20:55;17.15;;;13.65;;
25449;SDS011;13371;52.080;5.624;2022-08-16T08:23:21;20.40;;;14.43;;
25449;SDS011;13371;52.080;5.624;2022-08-16T08:25:48;26.17;;;15.93;;
25449;SDS011;13371;52.080;5.624;2022-08-16T08:28:14;19.65;;;13.75;;
25449;SDS011;13371;52.080;5.624;2022-08-16T08:30:40;17.75;;;13.13;;
25449;SDS011;13371;52.080;5.624;2022-08-16T08:33:06;19.92;;;14.50;;
25449;SDS011;13371;52.080;5.624;2022-08-16T08:35:32;17.85;;;13.38;;
25449;SDS011;13371;52.080;5.624;2022-08-16T08:37:58;14.90;;;12.40;;
25449;SDS011;13371;52.080;5.624;2022-08-16T08:40:25;17.90;;;13.63;;
25449;SDS011;13371;52.080;5.624;2022-08-16T08:42:53;19.80;;;12.95;;
25449;SDS011;13371;52.080;5.624;2022-08-16T08:45:20;21.52;;;14.25;;
25449;SDS011;13371;52.080;5.624;2022-08-16T08:47:47;18.75;;;12.95;;
25449;SDS011;13371;52.080;5.624;2022-08-16T08:50:12;20.73;;;13.57;;
25449;SDS011;13371;52.080;5.624;2022-08-16T08:52:38;21.02;;;14.43;;
25449;SDS011;13371;52.080;5.624;2022-08-16T08:55:05;17.23;;;12.82;;
25449;SDS011;13371;52.080;5.624;2022-08-16T08:57:32;17.65;;;12.52;;
25449;SDS011;13371;52.080;5.624;2022-08-16T08:59:58;16.08;;;12.25;;
25449;SDS011;13371;52.080;5.624;2022-08-16T09:02:23;18.75;;;12.95;;
25449;SDS011;13371;52.080;5.624;2022-08-16T09:04:49;18.33;;;12.43;;
25449;SDS011;13371;52.080;5.624;2022-08-16T09:07:15;21.23;;;14.15;;
25449;SDS011;13371;52.080;5.624;2022-08-16T09:09:41;20.58;;;14.13;;
25449;SDS011;13371;52.080;5.624;2022-08-16T09:12:07;20.15;;;12.35;;
25449;SDS011;13371;52.080;5.624;2022-08-16T09:14:36;15.75;;;11.35;;
25449;SDS011;13371;52.080;5.624;2022-08-16T09:17:03;28.55;;;13.75;;
25449;SDS011;13371;52.080;5.624;2022-08-16T09:19:30;16.83;;;12.55;;
25449;SDS011;13371;52.080;5.624;2022-08-16T09:21:56;19.13;;;13.90;;
25449;SDS011;13371;52.080;5.624;2022-08-16T09:24:22;14.35;;;10.50;;
25449;SDS011;13371;52.080;5.624;2022-08-16T09:26:48;18.08;;;11.95;;
25449;SDS011;13371;52.080;5.624;2022-08-16T09:29:13;17.00;;;11.73;;
25449;SDS011;13371;52.080;5.624;2022-08-16T09:31:39;18.45;;;11.73;;
25449;SDS011;13371;52.080;5.624;2022-08-16T09:34:05;17.02;;;12.40;;
25449;SDS011;13371;52.080;5.624;2022-08-16T09:36:30;18.23;;;12.38;;
25449;SDS011;13371;52.080;5.624;2022-08-16T09:38:56;16.63;;;11.50;;
25449;SDS011;13371;52.080;5.624;2022-08-16T09:41:22;19.33;;;12.27;;
25449;SDS011;13371;52.080;5.624;2022-08-16T09:43:47;16.38;;;11.40;;
25449;SDS011;13371;52.080;5.624;2022-08-16T09:46:13;14.65;;;10.82;;
25449;SDS011;13371;52.080;5.624;2022-08-16T09:48:39;15.93;;;11.30;;
25449;SDS011;13371;52.080;5.624;2022-08-16T09:51:05;16.35;;;10.18;;
25449;SDS011;13371;52.080;5.624;2022-08-16T09:53:33;17.13;;;11.00;;
25449;SDS011;13371;52.080;5.624;2022-08-16T09:55:59;15.02;;;10.85;;
25449;SDS011;13371;52.080;5.624;2022-08-16T09:58:26;14.30;;;10.93;;
25449;SDS011;13371;52.080;5.624;2022-08-16T10:00:52;13.98;;;10.32;;
25449;SDS011;13371;52.080;5.624;2022-08-16T10:03:18;17.88;;;13.32;;
25449;SDS011;13371;52.080;5.624;2022-08-16T10:05:45;19.67;;;11.52;;
25449;SDS011;13371;52.080;5.624;2022-08-16T10:08:11;15.43;;;10.98;;
25449;SDS011;13371;52.080;5.624;2022-08-16T10:10:37;16.67;;;10.60;;
25449;SDS011;13371;52.080;5.624;2022-08-16T10:13:05;15.88;;;12.27;;
25449;SDS011;13371;52.080;5.624;2022-08-16T10:15:39;13.75;;;10.80;;
25449;SDS011;13371;52.080;5.624;2022-08-16T10:18:07;14.98;;;10.13;;
25449;SDS011;13371;52.080;5.624;2022-08-16T10:20:37;18.83;;;13.25;;
25449;SDS011;13371;52.080;5.624;2022-08-16T10:23:06;13.65;;;9.10;;
25449;SDS011;13371;52.080;5.624;2022-08-16T10:25:36;14.13;;;9.57;;
25449;SDS011;13371;52.080;5.624;2022-08-16T10:28:04;11.35;;;7.78;;
25449;SDS011;13371;52.080;5.624;2022-08-16T10:30:31;15.95;;;11.10;;
25449;SDS011;13371;52.080;5.624;2022-08-16T10:32:56;17.05;;;10.80;;
25449;SDS011;13371;52.080;5.624;2022-08-16T10:35:22;17.60;;;10.93;;
25449;SDS011;13371;52.080;5.624;2022-08-16T10:37:49;13.82;;;10.40;;
25449;SDS011;13371;52.080;5.624;2022-08-16T10:40:15;13.60;;;9.60;;
25449;SDS011;13371;52.080;5.624;2022-08-16T10:42:41;16.40;;;11.80;;
25449;SDS011;13371;52.080;5.624;2022-08-16T10:45:07;14.85;;;11.52;;
25449;SDS011;13371;52.080;5.624;2022-08-16T10:47:33;16.58;;;11.98;;
25449;SDS011;13371;52.080;5.624;2022-08-16T10:49:59;17.98;;;13.15;;
25449;SDS011;13371;52.080;5.624;2022-08-16T10:52:25;20.33;;;14.25;;
25449;SDS011;13371;52.080;5.624;2022-08-16T10:54:51;19.48;;;12.85;;
25449;SDS011;13371;52.080;5.624;2022-08-16T10:57:16;17.60;;;12.77;;
25449;SDS011;13371;52.080;5.624;2022-08-16T10:59:42;17.60;;;13.07;;
25449;SDS011;13371;52.080;5.624;2022-08-16T11:02:08;14.32;;;12.77;;
25449;SDS011;13371;52.080;5.624;2022-08-16T11:04:35;18.92;;;13.05;;
25449;SDS011;13371;52.080;5.624;2022-08-16T11:07:00;16.10;;;11.25;;
25449;SDS011;13371;52.080;5.624;2022-08-16T11:09:26;14.68;;;10.30;;
25449;SDS011;13371;52.080;5.624;2022-08-16T11:11:51;16.30;;;10.80;;
25449;SDS011;13371;52.080;5.624;2022-08-16T11:14:17;13.30;;;9.30;;
25449;SDS011;13371;52.080;5.624;2022-08-16T11:16:44;17.52;;;12.65;;
25449;SDS011;13371;52.080;5.624;2022-08-16T11:19:10;15.52;;;11.63;;
25449;SDS011;13371;52.080;5.624;2022-08-16T11:21:36;14.75;;;10.90;;
25449;SDS011;13371;52.080;5.624;2022-08-16T11:24:02;14.85;;;9.18;;
25449;SDS011;13371;52.080;5.624;2022-08-16T11:26:28;10.95;;;8.07;;
25449;SDS011;13371;52.080;5.624;2022-08-16T11:28:55;12.77;;;8.40;;
25449;SDS011;13371;52.080;5.624;2022-08-16T11:31:21;16.77;;;9.70;;
25449;SDS011;13371;52.080;5.624;2022-08-16T11:33:48;16.25;;;8.48;;
25449;SDS011;13371;52.080;5.624;2022-08-16T11:36:14;20.10;;;9.57;;
25449;SDS011;13371;52.080;5.624;2022-08-16T11:38:39;13.85;;;9.45;;
25449;SDS011;13371;52.080;5.624;2022-08-16T11:41:05;11.57;;;8.13;;
25449;SDS011;13371;52.080;5.624;2022-08-16T11:43:33;14.88;;;10.68;;
25449;SDS011;13371;52.080;5.624;2022-08-16T11:46:02;11.88;;;8.95;;
25449;SDS011;13371;52.080;5.624;2022-08-16T11:48:31;12.18;;;7.43;;
25449;SDS011;13371;52.080;5.624;2022-08-16T11:50:57;11.65;;;6.93;;
25449;SDS011;13371;52.080;5.624;2022-08-16T11:53:25;12.95;;;7.20;;
25449;SDS011;13371;52.080;5.624;2022-08-16T11:55:52;15.00;;;9.60;;
25449;SDS011;13371;52.080;5.624;2022-08-16T11:58:18;13.30;;;9.55;;
25449;SDS011;13371;52.080;5.624;2022-08-16T12:00:45;17.05;;;9.02;;
25449;SDS011;13371;52.080;5.624;2022-08-16T12:03:11;13.02;;;9.00;;
25449;SDS011;13371;52.080;5.624;2022-08-16T12:05:40;12.00;;;7.40;;
25449;SDS011;13371;52.080;5.624;2022-08-16T12:08:08;14.52;;;8.65;;
25449;SDS011;13371;52.080;5.624;2022-08-16T12:10:36;15.57;;;9.05;;
25449;SDS011;13371;52.080;5.624;2022-08-16T12:13:04;16.58;;;10.13;;
25449;SDS011;13371;52.080;5.624;2022-08-16T12:15:33;13.02;;;8.30;;
25449;SDS011;13371;52.080;5.624;2022-08-16T12:17:59;8.52;;;7.15;;
25449;SDS011;13371;52.080;5.624;2022-08-16T12:20:27;14.00;;;8.75;;
25449;SDS011;13371;52.080;5.624;2022-08-16T12:22:56;10.52;;;7.82;;
25449;SDS011;13371;52.080;5.624;2022-08-16T12:25:22;12.98;;;9.63;;
25449;SDS011;13371;52.080;5.624;2022-08-16T12:27:50;15.40;;;9.32;;
25449;SDS011;13371;52.080;5.624;2022-08-16T12:30:18;10.65;;;7.85;;
25449;SDS011;13371;52.080;5.624;2022-08-16T12:32:45;11.07;;;6.28;;
25449;SDS011;13371;52.080;5.624;2022-08-16T12:35:14;12.77;;;6.45;;
25449;SDS011;13371;52.080;5.624;2022-08-16T12:37:41;8.02;;;5.90;;
25449;SDS011;13371;52.080;5.624;2022-08-16T12:40:09;17.98;;;8.30;;
25449;SDS011;13371;52.080;5.624;2022-08-16T12:42:36;11.93;;;6.40;;
25449;SDS011;13371;52.080;5.624;2022-08-16T12:45:08;14.18;;;7.93;;
25449;SDS011;13371;52.080;5.624;2022-08-16T12:47:36;16.70;;;6.47;;
25449;SDS011;13371;52.080;5.624;2022-08-16T12:50:21;7.07;;;5.60;;
25449;SDS011;13371;52.080;5.624;2022-08-16T12:52:47;9.85;;;5.22;;
25449;SDS011;13371;52.080;5.624;2022-08-16T12:55:13;8.02;;;5.53;;
25449;SDS011;13371;52.080;5.624;2022-08-16T12:57:39;9.98;;;5.80;;
25449;SDS011;13371;52.080;5.624;2022-08-16T13:00:07;9.95;;;6.95;;
25449;SDS011;13371;52.080;5.624;2022-08-16T13:02:38;8.50;;;5.05;;
25449;SDS011;13371;52.080;5.624;2022-08-16T13:05:13;9.90;;;4.85;;
25449;SDS011;13371;52.080;5.624;2022-08-16T13:07:40;8.65;;;4.78;;
25449;SDS011;13371;52.080;5.624;2022-08-16T13:10:07;7.72;;;5.15;;
25449;SDS011;13371;52.080;5.624;2022-08-16T13:12:39;11.88;;;5.25;;
25449;SDS011;13371;52.080;5.624;2022-08-16T13:15:06;10.30;;;4.60;;
25449;SDS011;13371;52.080;5.624;2022-08-16T13:17:35;8.05;;;4.97;;
25449;SDS011;13371;52.080;5.624;2022-08-16T13:20:03;10.00;;;5.45;;
25449;SDS011;13371;52.080;5.624;2022-08-16T13:22:32;9.23;;;5.13;;
25449;SDS011;13371;52.080;5.624;2022-08-16T13:24:59;8.45;;;5.72;;
25449;SDS011;13371;52.080;5.624;2022-08-16T13:27:24;10.52;;;6.97;;
25449;SDS011;13371;52.080;5.624;2022-08-16T13:29:50;14.02;;;6.45;;
25449;SDS011;13371;52.080;5.624;2022-08-16T13:32:15;9.05;;;6.28;;
25449;SDS011;13371;52.080;5.624;2022-08-16T13:34:41;10.20;;;7.15;;
25449;SDS011;13371;52.080;5.624;2022-08-16T13:37:07;12.88;;;6.97;;
25449;SDS011;13371;52.080;5.624;2022-08-16T13:39:32;9.00;;;6.15;;
25449;SDS011;13371;52.080;5.624;2022-08-16T13:41:58;10.23;;;6.78;;
25449;SDS011;13371;52.080;5.624;2022-08-16T13:44:28;18.00;;;7.85;;
25449;SDS011;13371;52.080;5.624;2022-08-16T13:46:54;9.77;;;7.50;;
25449;SDS011;13371;52.080;5.624;2022-08-16T13:49:20;10.43;;;7.18;;
25449;SDS011;13371;52.080;5.624;2022-08-16T13:51:46;16.83;;;8.32;;
25449;SDS011;13371;52.080;5.624;2022-08-16T13:54:11;15.65;;;8.45;;
25449;SDS011;13371;52.080;5.624;2022-08-16T13:56:37;12.05;;;9.63;;
25449;SDS011;13371;52.080;5.624;2022-08-16T13:59:03;15.32;;;10.75;;
25449;SDS011;13371;52.080;5.624;2022-08-16T14:01:30;19.33;;;10.10;;
25449;SDS011;13371;52.080;5.624;2022-08-16T14:03:55;16.65;;;11.10;;
25449;SDS011;13371;52.080;5.624;2022-08-16T14:06:21;14.52;;;8.48;;
25449;SDS011;13371;52.080;5.624;2022-08-16T14:08:46;12.23;;;8.30;;
25449;SDS011;13371;52.080;5.624;2022-08-16T14:11:13;12.00;;;10.05;;
25449;SDS011;13371;52.080;5.624;2022-08-16T14:13:40;18.83;;;11.25;;
25449;SDS011;13371;52.080;5.624;2022-08-16T14:16:06;16.55;;;10.77;;
25449;SDS011;13371;52.080;5.624;2022-08-16T14:18:32;11.02;;;9.13;;
25449;SDS011;13371;52.080;5.624;2022-08-16T14:20:58;13.20;;;8.57;;
25449;SDS011;13371;52.080;5.624;2022-08-16T14:23:24;11.38;;;9.60;;
25449;SDS011;13371;52.080;5.624;2022-08-16T14:25:50;13.85;;;9.63;;
25449;SDS011;13371;52.080;5.624;2022-08-16T14:28:16;11.52;;;8.93;;
25449;SDS011;13371;52.080;5.624;2022-08-16T14:30:42;11.30;;;9.13;;